This is the latest recevied weather packets stored in our database for station/object CE7LGA-10. If no packets are shown the sender has not sent any weather packets the latest 10 day(s).
| Time | Temp. | Humidity | Pressure | Rain* | Wind** | Luminosity | Snow |
|---|---|---|---|---|---|---|---|
| 1788134002 | 76° F | 45% | 752.5 mmHg | - | - | - | - |
| 1788133102 | 77° F | 45% | 752.2 mmHg | - | - | - | - |
| 1788132202 | 78° F | 44% | 752.2 mmHg | - | - | - | - |
| 1788131302 | 79° F | 44% | 751.9 mmHg | - | - | - | - |
| 1788130401 | 78° F | 45% | 751.6 mmHg | - | - | - | - |
| 1788129505 | 77° F | 46% | 751.6 mmHg | - | - | - | - |
| 1788128604 | 77° F | 47% | 751.6 mmHg | - | - | - | - |
| 1788127704 | 77° F | 48% | 751.5 mmHg | - | - | - | - |
| 1788126804 | 77° F | 49% | 751.3 mmHg | - | - | - | - |
| 1788125904 | 78° F | 50% | 751.3 mmHg | - | - | - | - |
| 1788125004 | 77° F | 52% | 751.1 mmHg | - | - | - | - |
| 1788124104 | 76° F | 52% | 751 mmHg | - | - | - | - |
| 1788123204 | 75° F | 51% | 751 mmHg | - | - | - | - |
| 1788122304 | 75° F | 50% | 751 mmHg | - | - | - | - |
| 1788121404 | 73° F | 53% | 751 mmHg | - | - | - | - |
| 1788120504 | 75° F | 48% | 750.9 mmHg | - | - | - | - |
| 1788119604 | 75° F | 48% | 750.9 mmHg | - | - | - | - |
| 1788118704 | 74° F | 49% | 750.9 mmHg | - | - | - | - |
| 1788117803 | 73° F | 50% | 750.9 mmHg | - | - | - | - |
| 1788116903 | 70° F | 53% | 751 mmHg | - | - | - | - |
| 1788116003 | 70° F | 53% | 751 mmHg | - | - | - | - |
| 1788115103 | 70° F | 53% | 750.9 mmHg | - | - | - | - |
| 1788114203 | 69° F | 54% | 750.8 mmHg | - | - | - | - |
| 1788113303 | 69° F | 57% | 751 mmHg | - | - | - | - |
| 1788112403 | 64° F | 60% | 751 mmHg | - | - | - | - |
* Rain since midnight (hover to see other rain measurements)
** Current wind speed in m/s (hover to see current wind gust speed)